Terminal Aerodrome Forecast
Issued by NWS

Home | Current Version | Previous Version | Text Only | Print | Product List | Glossary On
Versions: 1 2 3 4 5 6 7 8 9 10 11 12
000
FTUS43 KGRB 221729
TAFCWA
TAF
KCWA 221729Z 2218/2318 18011G18KT P6SM SCT080
     FM222300 17007KT P6SM SKC
     FM230200 17006KT P6SM SKC WS010/22040KT
     FM231300 21008KT P6SM BKN250
     FM231600 21011G18KT P6SM BKN250=

USA.gov is the U.S. government's official web portal to all federal, state and local government web resources and services.